Time;durP1;ratioP1;P1;durP2;ratioP2;P2;SDS_P1;SDS_P2;PMS_P1;PMS_P2;Temp;Humidity;BMP_temperature;BMP_pressure;BME280_temperature;BME280_humidity;BME280_pressure;Samples;Min_cycle;Max_cycle;Signal;HPM_P1;HPM_P2
2021/12/23 00:00:58;;;;;;;21.90;9.57;;;;;;;-11.11;100.00;100674.52;1725950;82;21007;-73
2021/12/23 00:03:25;;;;;;;17.80;8.07;;;;;;;-11.10;100.00;100665.81;1724689;82;21031;-71
2021/12/23 00:05:53;;;;;;;17.23;7.87;;;;;;;-11.07;100.00;100664.44;1723807;82;21476;-72
2021/12/23 00:08:21;;;;;;;18.53;8.90;;;;;;;-11.03;100.00;100660.50;1727976;82;21015;-72
2021/12/23 00:10:49;;;;;;;16.57;6.50;;;;;;;-11.04;100.00;100667.92;1726483;82;21006;-73
2021/12/23 00:13:16;;;;;;;16.70;7.33;;;;;;;-11.01;100.00;100663.53;1726614;82;21011;-71
2021/12/23 00:16:03;;;;;;;17.83;7.10;;;;;;;-10.99;100.00;100658.28;1725215;82;20962;-72
2021/12/23 00:18:41;;;;;;;16.17;7.07;;;;;;;-10.99;100.00;100656.98;1728273;82;20971;-71
2021/12/23 00:25:49;;;;;;;16.37;6.47;;;;;;;-10.87;100.00;100661.16;1724176;82;21026;-73
2021/12/23 00:28:16;;;;;;;16.70;6.73;;;;;;;-10.87;100.00;100659.40;1722508;82;21006;-72
2021/12/23 00:30:43;;;;;;;12.47;5.57;;;;;;;-10.85;100.00;100652.84;1721904;83;20967;-72
2021/12/23 00:33:10;;;;;;;13.23;5.90;;;;;;;-10.85;100.00;100658.08;1721889;83;21019;-73
2021/12/23 00:35:37;;;;;;;12.50;5.63;;;;;;;-10.84;100.00;100663.28;1721887;83;20999;-72
2021/12/23 00:38:12;;;;;;;13.97;6.00;;;;;;;-10.82;100.00;100659.34;1720608;83;21006;-71
2021/12/23 00:40:34;;;;;;;12.77;5.63;;;;;;;-10.78;100.00;100658.41;1721776;83;21453;-72
2021/12/23 00:43:01;;;;;;;14.00;5.43;;;;;;;-10.77;100.00;100655.78;1721986;83;21030;-72
2021/12/23 00:45:28;;;;;;;12.57;5.50;;;;;;;-10.77;100.00;100653.62;1721804;83;20987;-72
2021/12/23 00:47:55;;;;;;;11.63;5.20;;;;;;;-10.78;100.00;100653.19;1721492;83;21022;-72
2021/12/23 00:50:21;;;;;;;11.27;5.27;;;;;;;-10.80;100.00;100649.73;1721849;83;21477;-73
2021/12/23 00:52:55;;;;;;;10.07;5.60;;;;;;;-10.80;100.00;100644.51;1721832;83;21014;-72
2021/12/23 00:55:17;;;;;;;13.17;5.47;;;;;;;-10.83;100.00;100643.27;1722144;83;21469;-71
2021/12/23 00:57:44;;;;;;;10.50;5.63;;;;;;;-10.80;100.00;100640.59;1721530;83;21066;-72
2021/12/23 01:00:15;;;;;;;12.57;5.90;;;;;;;-10.80;100.00;100641.47;1717843;83;21039;-73
2021/12/23 01:02:44;;;;;;;11.70;5.50;;;;;;;-10.85;100.00;100638.48;1710326;83;20975;-71
2021/12/23 01:05:11;;;;;;;11.27;5.60;;;;;;;-10.87;100.00;100640.25;1709810;84;21028;-71
2021/12/23 01:07:38;;;;;;;12.97;5.70;;;;;;;-10.86;100.00;100643.30;1710498;83;21051;-72
2021/12/23 01:10:06;;;;;;;17.33;7.03;;;;;;;-10.84;100.00;100640.22;1710087;83;21018;-71
2021/12/23 01:12:41;;;;;;;22.23;7.17;;;;;;;-10.83;100.00;100644.58;1709831;83;21048;-72
2021/12/23 01:15:16;;;;;;;16.87;6.80;;;;;;;-10.82;100.00;100640.61;1710251;83;21036;-71
2021/12/23 01:20:12;;;;;;;15.40;6.90;;;;;;;-10.76;100.00;100635.31;1616779;87;21020;-72
2021/12/23 01:22:39;;;;;;;17.33;7.00;;;;;;;-10.76;100.00;100641.84;1623351;87;21157;-73
2021/12/23 01:25:07;;;;;;;13.47;6.33;;;;;;;-10.74;100.00;100636.14;1619999;87;21510;-73
2021/12/23 01:27:34;;;;;;;16.57;7.03;;;;;;;-10.73;100.00;100635.69;1624218;87;21055;-72
2021/12/23 01:30:03;;;;;;;14.47;6.47;;;;;;;-10.72;100.00;100638.29;1633963;88;21008;-72
2021/12/23 01:32:29;;;;;;;16.57;6.70;;;;;;;-10.70;100.00;100639.12;1634586;86;21066;-72
2021/12/23 01:34:58;;;;;;;16.70;7.33;;;;;;;-10.69;100.00;100636.09;1634701;88;21512;-73
2021/12/23 01:37:25;;;;;;;19.33;7.07;;;;;;;-10.72;100.00;100637.44;1633124;87;21043;-73
2021/12/23 01:39:51;;;;;;;19.37;7.80;;;;;;;-10.74;100.00;100633.98;1634128;88;21056;-72
2021/12/23 01:42:18;;;;;;;16.80;7.07;;;;;;;-10.76;100.00;100629.23;1633629;88;21617;-72
2021/12/23 01:44:45;;;;;;;19.07;6.97;;;;;;;-10.78;100.00;100626.63;1633301;87;21031;-72
2021/12/23 01:47:12;;;;;;;15.70;6.43;;;;;;;-10.75;100.00;100627.88;1637291;85;21041;-72
2021/12/23 01:49:39;;;;;;;21.10;7.70;;;;;;;-10.74;100.00;100628.76;1636507;86;21052;-71
2021/12/23 01:52:07;;;;;;;14.63;6.70;;;;;;;-10.76;100.00;100628.77;1637453;85;21075;-72
2021/12/23 01:54:35;;;;;;;15.17;7.20;;;;;;;-10.77;100.00;100635.33;1636341;84;21000;-72
2021/12/23 01:57:03;;;;;;;14.47;6.23;;;;;;;-10.83;100.00;100627.14;1682974;82;21011;-73
2021/12/23 01:59:32;;;;;;;13.73;5.97;;;;;;;-10.85;100.00;100629.34;1745217;82;20947;-72
2021/12/23 02:01:59;;;;;;;13.70;6.20;;;;;;;-10.90;100.00;100629.42;1744187;82;20998;-72
2021/12/23 02:04:27;;;;;;;13.10;5.40;;;;;;;-10.93;100.00;100635.98;1744365;82;21062;-71
2021/12/23 02:07:00;;;;;;;10.37;5.40;;;;;;;-10.99;100.00;100633.47;1742984;82;21506;-72
2021/12/23 02:09:27;;;;;;;23.23;10.80;;;;;;;-11.04;100.00;100624.38;1742153;82;21034;-72
2021/12/23 02:12:00;;;;;;;11.27;5.20;;;;;;;-11.07;100.00;100630.48;1743213;82;20999;-72
2021/12/23 02:14:27;;;;;;;5.93;3.87;;;;;;;-11.12;100.00;100631.02;1744626;80;21524;-73
2021/12/23 02:16:55;;;;;;;6.93;3.90;;;;;;;-11.18;100.00;100632.84;1743916;82;21019;-73
2021/12/23 02:19:22;;;;;;;6.67;4.03;;;;;;;-11.23;100.00;100640.72;1743460;82;21026;-73
2021/12/23 02:21:49;;;;;;;10.83;6.60;;;;;;;-11.25;100.00;100648.16;1743155;80;21018;-73
2021/12/23 02:24:17;;;;;;;8.50;5.60;;;;;;;-11.29;100.00;100646.03;1743230;82;21063;-72
2021/12/23 02:26:43;;;;;;;14.50;9.37;;;;;;;-11.32;100.00;100646.06;1744199;82;21042;-71
2021/12/23 02:29:10;;;;;;;9.47;5.57;;;;;;;-11.35;100.00;100647.39;1745327;82;20999;-72
2021/12/23 02:31:37;;;;;;;7.17;3.97;;;;;;;-11.40;100.00;100655.72;1745367;81;21430;-72
2021/12/23 02:34:04;;;;;;;7.07;3.93;;;;;;;-11.46;100.00;100660.57;1745324;82;21038;-72
2021/12/23 02:36:31;;;;;;;7.50;4.10;;;;;;;-11.53;100.00;100666.30;1745353;81;21015;-73
2021/12/23 02:38:59;;;;;;;7.37;4.60;;;;;;;-11.59;100.00;100670.73;1745431;82;21039;-71
2021/12/23 02:41:26;;;;;;;8.47;4.90;;;;;;;-11.65;100.00;100673.83;1745310;81;21050;-71
2021/12/23 02:43:52;;;;;;;10.73;5.10;;;;;;;-11.71;100.00;100681.70;1745638;81;21032;-71
2021/12/23 02:46:20;;;;;;;26.13;15.70;;;;;;;-11.75;100.00;100683.93;1745503;81;21466;-73
2021/12/23 02:48:47;;;;;;;12.37;5.43;;;;;;;-11.77;100.00;100682.20;1745438;81;20995;-73
2021/12/23 02:51:15;;;;;;;10.87;5.70;;;;;;;-11.82;100.00;100682.70;1745514;81;20979;-70
2021/12/23 02:53:43;;;;;;;8.43;4.93;;;;;;;-11.87;100.00;100678.83;1745602;81;20980;-72
2021/12/23 02:56:14;;;;;;;9.53;4.73;;;;;;;-11.91;100.00;100688.45;1745469;82;20959;-72
2021/12/23 02:58:40;;;;;;;9.90;4.77;;;;;;;-11.95;100.00;100680.25;1745545;82;21034;-71
2021/12/23 03:01:08;;;;;;;8.43;4.57;;;;;;;-11.98;100.00;100691.14;1749457;82;21011;-72
2021/12/23 03:03:35;;;;;;;8.30;3.80;;;;;;;-12.02;100.00;100690.72;1753484;82;21002;-71
2021/12/23 03:06:02;;;;;;;11.33;4.30;;;;;;;-12.07;100.00;100692.08;1753844;82;21520;-72
2021/12/23 03:08:34;;;;;;;8.50;4.37;;;;;;;-12.08;100.00;100702.07;1717746;83;21525;-72
2021/12/23 03:11:01;;;;;;;10.40;4.37;;;;;;;-12.08;100.00;100699.02;1647666;86;21015;-73
2021/12/23 03:13:28;;;;;;;8.67;4.30;;;;;;;-12.07;100.00;100700.77;1646721;87;21513;-73
2021/12/23 03:15:57;;;;;;;9.07;4.43;;;;;;;-12.07;100.00;100697.30;1646802;87;20995;-72
2021/12/23 03:18:24;;;;;;;9.67;5.00;;;;;;;-12.08;100.00;100703.38;1646647;87;21043;-73
2021/12/23 03:20:52;;;;;;;9.07;4.80;;;;;;;-12.12;100.00;100705.14;1646744;87;21182;-72
2021/12/23 03:23:19;;;;;;;10.37;5.67;;;;;;;-12.16;100.00;100704.75;1646640;87;21051;-73
2021/12/23 03:25:46;;;;;;;8.43;4.10;;;;;;;-12.18;100.00;100712.14;1646750;87;21040;-72
2021/12/23 03:28:13;;;;;;;6.57;3.80;;;;;;;-12.20;100.00;100713.91;1633144;87;21014;-72
2021/12/23 03:30:40;;;;;;;7.80;4.27;;;;;;;-12.23;100.00;100718.71;1628353;88;21011;-73
2021/12/23 03:33:06;;;;;;;7.03;4.60;;;;;;;-12.25;100.00;100717.83;1628481;88;21080;-72
2021/12/23 03:35:34;;;;;;;9.90;4.77;;;;;;;-12.28;100.00;100721.34;1603405;89;20994;-72
2021/12/23 03:38:00;;;;;;;8.33;4.80;;;;;;;-12.28;100.00;100720.03;1628469;88;21055;-72
2021/12/23 03:40:27;;;;;;;10.70;5.70;;;;;;;-12.28;100.00;100729.16;1628418;88;21006;-72
2021/12/23 03:42:54;;;;;;;9.47;5.17;;;;;;;-12.28;100.00;100727.00;1628428;88;21079;-72
2021/12/23 03:45:21;;;;;;;7.07;4.50;;;;;;;-12.29;100.00;100726.11;1628441;88;20995;-71
2021/12/23 03:47:49;;;;;;;10.30;5.10;;;;;;;-12.31;100.00;100722.66;1628367;88;21038;-71
2021/12/23 03:50:18;;;;;;;12.43;7.00;;;;;;;-12.31;100.00;100730.47;1628487;87;21517;-72
2021/12/23 03:52:44;;;;;;;18.17;10.33;;;;;;;-12.30;100.00;100728.76;1628429;88;21095;-71
2021/12/23 03:55:11;;;;;;;12.03;6.53;;;;;;;-12.31;100.00;100725.27;1623501;88;21031;-71
2021/12/23 03:57:40;;;;;;;28.10;19.97;;;;;;;-12.30;100.00;100724.84;1596981;90;21067;-71
2021/12/23 04:00:12;;;;;;;16.63;9.73;;;;;;;-12.30;100.00;100733.52;1596910;90;21023;-72
2021/12/23 04:02:39;;;;;;;10.53;5.67;;;;;;;-12.30;100.00;100732.67;1583781;90;21037;-73
2021/12/23 04:05:07;;;;;;;11.23;6.53;;;;;;;-12.31;100.00;100739.59;1583820;89;21075;-72
2021/12/23 04:07:36;;;;;;;10.20;5.27;;;;;;;-12.31;100.00;100740.90;1642220;83;20983;-72
2021/12/23 04:10:04;;;;;;;9.43;5.03;;;;;;;-12.29;100.00;100736.54;1710665;84;20994;-72
2021/12/23 04:12:31;;;;;;;9.37;4.57;;;;;;;-12.24;100.00;100742.59;1710634;83;21043;-71
2021/12/23 04:14:58;;;;;;;22.00;11.83;;;;;;;-12.19;100.00;100746.48;1710662;83;21532;-72
2021/12/23 04:17:25;;;;;;;14.77;7.50;;;;;;;-12.15;100.00;100743.41;1710669;84;21054;-73
2021/12/23 04:19:55;;;;;;;13.33;5.80;;;;;;;-12.10;100.00;100737.28;1712099;83;21014;-72
2021/12/23 04:22:20;;;;;;;13.23;6.40;;;;;;;-12.05;100.00;100738.56;1710862;83;21485;-71
2021/12/23 04:24:47;;;;;;;9.90;4.90;;;;;;;-12.03;100.00;100735.50;1710562;84;20975;-72
2021/12/23 04:27:14;;;;;;;25.87;15.47;;;;;;;-11.99;100.00;100731.98;1706048;83;21022;-71
2021/12/23 04:29:42;;;;;;;17.13;7.97;;;;;;;-11.96;100.00;100735.02;1694615;83;20986;-71
2021/12/23 04:32:08;;;;;;;15.00;6.50;;;;;;;-11.93;100.00;100742.80;1693037;83;21492;-72
2021/12/23 04:34:36;;;;;;;11.00;5.63;;;;;;;-11.93;100.00;100738.47;1693207;85;20966;-73
2021/12/23 04:37:03;;;;;;;14.73;5.37;;;;;;;-11.93;100.00;100739.77;1694997;83;21022;-72
2021/12/23 04:39:30;;;;;;;12.93;5.30;;;;;;;-11.90;100.00;100745.39;1693429;83;20974;-73
2021/12/23 04:41:56;;;;;;;12.90;5.33;;;;;;;-11.87;100.00;100751.41;1693505;85;21006;-74
2021/12/23 04:44:23;;;;;;;20.60;12.50;;;;;;;-11.84;100.00;100742.27;1693394;85;20974;-72
2021/12/23 04:46:50;;;;;;;13.13;6.40;;;;;;;-11.82;100.00;100746.63;1693667;83;21042;-72
2021/12/23 04:49:21;;;;;;;11.27;5.37;;;;;;;-11.81;100.00;100749.64;1693854;85;20974;-75
2021/12/23 04:51:45;;;;;;;11.90;5.30;;;;;;;-11.81;100.00;100750.94;1691883;84;21033;-72
2021/12/23 04:54:12;;;;;;;11.63;4.97;;;;;;;-11.79;100.00;100748.77;1694037;83;21013;-73
2021/12/23 04:56:39;;;;;;;10.63;5.53;;;;;;;-11.77;100.00;100759.16;1693697;85;21018;-74
2021/12/23 04:59:06;;;;;;;11.20;5.30;;;;;;;-11.75;100.00;100760.04;1693634;84;21085;-73
2021/12/23 05:01:33;;;;;;;13.17;6.10;;;;;;;-11.76;100.00;100761.76;1688433;83;21045;-73
2021/12/23 05:04:00;;;;;;;13.73;5.80;;;;;;;-11.73;100.00;100767.41;1741511;82;21038;-74
2021/12/23 05:06:27;;;;;;;13.37;6.00;;;;;;;-11.72;100.00;100763.90;1741609;82;21022;-75
2021/12/23 05:08:54;;;;;;;12.17;6.07;;;;;;;-11.72;100.00;100769.12;1741640;82;21022;-73
2021/12/23 05:11:20;;;;;;;10.70;5.20;;;;;;;-11.71;100.00;100771.72;1741646;82;20987;-74
2021/12/23 05:13:47;;;;;;;14.73;6.40;;;;;;;-11.71;100.00;100772.17;1742169;82;21127;-72
2021/12/23 05:16:18;;;;;;;11.37;5.40;;;;;;;-11.71;100.00;100766.50;1741684;82;21046;-74
2021/12/23 05:18:45;;;;;;;35.87;23.00;;;;;;;-11.68;100.00;100774.77;1741690;82;21480;-74
2021/12/23 05:21:11;;;;;;;18.33;9.47;;;;;;;-11.67;100.00;100776.05;1741619;82;21038;-73
2021/12/23 05:23:39;;;;;;;14.20;6.53;;;;;;;-11.69;100.00;100781.70;1741839;82;20971;-72
2021/12/23 05:26:07;;;;;;;14.60;6.30;;;;;;;-11.73;100.00;100781.31;1741684;82;21465;-73
2021/12/23 05:28:35;;;;;;;11.00;5.23;;;;;;;-11.76;100.00;100783.08;1741761;82;20994;-73
2021/12/23 05:31:03;;;;;;;12.13;5.30;;;;;;;-11.81;100.00;100783.10;1741671;82;21457;-73
2021/12/23 05:33:32;;;;;;;12.60;6.50;;;;;;;-11.87;100.00;100785.33;1741542;82;20971;-73
2021/12/23 05:35:58;;;;;;;15.33;6.47;;;;;;;-11.89;100.00;100794.05;1741801;81;21010;-73
2021/12/23 05:38:25;;;;;;;11.13;6.10;;;;;;;-11.94;100.00;100799.32;1741659;82;21115;-74
2021/12/23 05:40:52;;;;;;;13.43;5.90;;;;;;;-11.95;100.00;100799.33;1742325;82;21049;-72
2021/12/23 05:43:19;;;;;;;18.80;9.00;;;;;;;-11.94;100.00;100801.93;1742095;82;20982;-74
2021/12/23 05:45:46;;;;;;;17.53;8.20;;;;;;;-11.94;100.00;100802.38;1741802;82;21547;-74
2021/12/23 05:48:13;;;;;;;14.67;6.90;;;;;;;-11.96;100.00;100806.30;1741763;82;21081;-74
2021/12/23 05:50:47;;;;;;;15.43;6.90;;;;;;;-11.96;100.00;100813.27;1741565;82;21026;-74
2021/12/23 05:53:14;;;;;;;17.43;8.10;;;;;;;-11.98;100.00;100815.02;1741901;82;20955;-73
2021/12/23 05:55:40;;;;;;;13.20;6.37;;;;;;;-12.01;100.00;100820.25;1741463;82;20944;-74
2021/12/23 05:58:07;;;;;;;11.43;5.63;;;;;;;-12.07;100.00;100820.71;1741772;82;21046;-73
2021/12/23 06:00:35;;;;;;;13.80;6.17;;;;;;;-12.13;100.00;100827.70;1741685;82;21517;-75
2021/12/23 06:03:02;;;;;;;11.43;5.43;;;;;;;-12.17;100.00;100828.16;1750472;81;20987;-74
2021/12/23 06:05:29;;;;;;;14.23;5.70;;;;;;;-12.21;100.00;100832.97;1750702;82;21014;-74
2021/12/23 06:07:55;;;;;;;15.40;7.07;;;;;;;-12.25;100.00;100837.33;1751180;82;21005;-74
2021/12/23 06:10:24;;;;;;;12.77;6.27;;;;;;;-12.27;100.00;100840.80;1751288;82;21003;-74
2021/12/23 06:12:51;;;;;;;46.53;29.47;;;;;;;-12.27;100.00;100849.92;1751406;82;20987;-74
2021/12/23 06:15:19;;;;;;;82.67;35.93;;;;;;;-12.25;100.00;100852.97;1751737;82;20999;-75
2021/12/23 06:17:46;;;;;;;106.53;46.90;;;;;;;-12.19;100.00;100848.61;1750410;82;20966;-74
2021/12/23 06:20:13;;;;;;;192.20;73.90;;;;;;;-12.12;100.00;100855.52;1728709;82;21074;-75
2021/12/23 06:22:40;;;;;;;197.53;98.67;;;;;;;-12.03;100.00;100861.98;1751728;82;20986;-76
2021/12/23 06:25:09;;;;;;;188.13;97.87;;;;;;;-11.95;100.00;100860.63;1751753;82;20972;-76
2021/12/23 06:27:36;;;;;;;59.37;33.70;;;;;;;-11.91;100.00;100856.69;1728673;82;21021;-75
2021/12/23 06:32:42;;;;;;;64.37;41.40;;;;;;;-11.82;100.00;100856.19;1591864;89;20961;-76
2021/12/23 06:35:09;;;;;;;38.00;23.47;;;;;;;-11.80;100.00;100855.73;1592126;90;21091;-75
2021/12/23 06:37:36;;;;;;;25.63;12.13;;;;;;;-11.81;100.00;100865.28;1592147;88;21061;-74
2021/12/23 06:40:03;;;;;;;30.00;14.77;;;;;;;-11.81;100.00;100862.67;1596936;89;21091;-79
2021/12/23 06:42:32;;;;;;;33.67;14.83;;;;;;;-11.78;100.00;100866.57;1585475;91;21049;-76
2021/12/23 06:44:58;;;;;;;34.90;14.80;;;;;;;-11.77;100.00;100862.20;1568346;90;21069;-76
2021/12/23 06:47:25;;;;;;;33.93;15.97;;;;;;;-11.78;100.00;100863.96;1585052;91;20999;-75
2021/12/23 06:49:54;;;;;;;35.37;17.53;;;;;;;-11.76;100.00;100867.42;1569804;90;20996;-74
2021/12/23 06:52:21;;;;;;;35.77;17.67;;;;;;;-11.74;100.00;100859.59;1545842;92;21011;-75
2021/12/23 06:54:52;;;;;;;37.00;18.87;;;;;;;-11.68;100.00;100869.55;1578937;90;21093;-75
2021/12/23 06:57:16;;;;;;;69.47;38.33;;;;;;;-11.62;100.00;100867.33;1594956;89;21517;-74
2021/12/23 06:59:44;;;;;;;36.07;17.67;;;;;;;-11.58;100.00;100861.65;1578701;89;21050;-73
2021/12/23 07:02:11;;;;;;;64.87;37.97;;;;;;;-11.52;100.00;100862.92;1612578;88;20987;-74
2021/12/23 07:04:40;;;;;;;32.40;19.17;;;;;;;-11.47;100.00;100867.22;1618495;88;21514;-74
2021/12/23 07:07:11;;;;;;;33.67;20.83;;;;;;;-11.39;100.00;100866.30;1595829;88;20995;-76
2021/12/23 07:09:45;;;;;;;21.00;9.87;;;;;;;-11.34;100.00;100872.34;1609398;88;21018;-73
2021/12/23 07:12:12;;;;;;;32.90;20.97;;;;;;;-11.32;100.00;100869.28;1614889;88;20999;-75
2021/12/23 07:14:40;;;;;;;25.23;10.97;;;;;;;-11.25;100.00;100867.49;1610424;89;21082;-76
2021/12/23 07:17:07;;;;;;;35.13;20.53;;;;;;;-11.20;100.00;100873.55;1610695;89;21102;-77
2021/12/23 07:19:35;;;;;;;25.13;12.80;;;;;;;-11.18;100.00;100871.33;1613558;85;21038;-74
2021/12/23 07:22:03;;;;;;;72.57;40.77;;;;;;;-11.17;100.00;100874.80;1616707;88;21596;-78
2021/12/23 07:24:36;;;;;;;60.67;29.27;;;;;;;-11.13;100.00;100881.75;1611036;88;21031;-80
2021/12/23 07:27:03;;;;;;;90.20;35.97;;;;;;;-11.15;100.00;100877.84;1619374;88;20999;-78
2021/12/23 07:29:30;;;;;;;144.87;53.80;;;;;;;-11.16;100.00;100878.70;1688748;82;21034;-77
2021/12/23 07:31:59;;;;;;;176.17;65.43;;;;;;;-11.17;100.00;100876.99;1745105;82;20962;-74
2021/12/23 07:34:26;;;;;;;114.23;41.33;;;;;;;-11.12;100.00;100883.05;1745097;82;21517;-73
2021/12/23 07:36:53;;;;;;;296.47;102.43;;;;;;;-11.00;100.00;100885.11;1745366;82;21054;-78
2021/12/23 07:39:20;;;;;;;74.50;31.97;;;;;;;-10.92;100.00;100887.22;1724444;82;21022;-75
2021/12/23 07:41:48;;;;;;;134.03;69.40;;;;;;;-10.83;100.00;100883.66;1745186;82;21493;-75
2021/12/23 07:46:45;;;;;;;97.77;42.57;;;;;;;-10.63;100.00;100879.52;1654331;85;20975;-73
2021/12/23 07:49:12;;;;;;;22.70;9.97;;;;;;;-10.52;100.00;100886.36;1664707;85;20986;-74
2021/12/23 07:51:40;;;;;;;28.80;14.70;;;;;;;-10.42;100.00;100881.02;1670370;85;21022;-71
2021/12/23 07:54:07;;;;;;;43.03;20.97;;;;;;;-10.33;100.00;100887.44;1666972;85;21117;-72
2021/12/23 07:56:34;;;;;;;24.17;12.77;;;;;;;-10.24;100.00;100882.52;1666261;85;21035;-73
2021/12/23 07:59:01;;;;;;;41.07;19.77;;;;;;;-10.16;100.00;100888.52;1624419;88;21035;-76
2021/12/23 08:01:29;;;;;;;24.20;12.30;;;;;;;-10.14;100.00;100895.91;1647776;86;21030;-74
2021/12/23 08:03:56;;;;;;;63.07;33.47;;;;;;;-10.17;100.00;100893.32;1664133;85;21057;-77
2021/12/23 08:06:23;;;;;;;39.43;21.37;;;;;;;-10.23;100.00;100899.91;1670647;85;21025;-75
2021/12/23 08:08:50;;;;;;;70.57;46.80;;;;;;;-10.35;100.00;100908.37;1652215;85;21062;-76
2021/12/23 08:11:17;;;;;;;149.73;92.27;;;;;;;-10.39;100.00;100913.65;1676362;85;20986;-76
2021/12/23 08:13:44;;;;;;;74.33;48.57;;;;;;;-10.40;100.00;100919.78;1674615;85;21018;-75
2021/12/23 08:16:16;;;;;;;54.60;40.00;;;;;;;-10.41;100.00;100920.23;1677048;85;20967;-79
2021/12/23 08:18:51;;;;;;;24.23;13.00;;;;;;;-10.39;100.00;100928.03;1654897;86;21101;-81
2021/12/23 08:21:22;;;;;;;34.67;22.10;;;;;;;-10.32;100.00;100922.73;1658622;85;21082;-75
2021/12/23 08:23:49;;;;;;;36.70;22.80;;;;;;;-10.22;100.00;100913.44;1705921;81;21031;-73
2021/12/23 08:26:16;;;;;;;41.50;28.77;;;;;;;-9.98;100.00;100917.50;1755081;81;21017;-75
2021/12/23 08:28:43;;;;;;;32.60;19.97;;;;;;;-9.77;100.00;100910.67;1757644;81;20978;-76
2021/12/23 08:31:11;;;;;;;15.40;7.97;;;;;;;-9.64;100.00;100903.95;1756054;81;20994;-79
2021/12/23 08:33:38;;;;;;;21.67;11.40;;;;;;;-9.66;100.00;100903.97;1757999;81;21460;-73
2021/12/23 08:36:05;;;;;;;27.63;15.13;;;;;;;-9.76;100.00;100916.31;1756635;81;20972;-78
2021/12/23 08:38:33;;;;;;;21.73;11.33;;;;;;;-9.74;100.00;100913.67;1760622;80;21030;-73
2021/12/23 08:41:00;;;;;;;19.20;9.40;;;;;;;-9.59;100.00;100907.38;1764379;81;20956;-74
2021/12/23 08:43:27;;;;;;;17.27;8.43;;;;;;;-9.60;100.00;100908.25;1753348;81;20939;-75
2021/12/23 08:45:54;;;;;;;21.60;11.57;;;;;;;-9.63;100.00;100914.83;1734007;81;20951;-76
2021/12/23 08:48:21;;;;;;;17.17;8.53;;;;;;;-9.63;100.00;100909.17;1754795;81;21111;-77
2021/12/23 08:50:48;;;;;;;20.63;11.27;;;;;;;-9.62;100.00;100911.34;1751352;81;20999;-80
2021/12/23 08:53:15;;;;;;;19.93;10.33;;;;;;;-9.62;100.00;100906.95;1763020;81;21381;-77
2021/12/23 08:55:43;;;;;;;26.27;14.83;;;;;;;-9.48;100.00;100911.99;1761961;81;20982;-77
2021/12/23 08:58:10;;;;;;;35.97;25.30;;;;;;;-9.26;100.00;100909.92;1754306;81;20983;-77
2021/12/23 09:00:38;;;;;;;21.97;11.97;;;;;;;-9.08;100.00;100908.76;1754564;80;21529;-73
2021/12/23 09:03:06;;;;;;;18.00;9.13;;;;;;;-9.02;100.00;100914.34;1733115;81;21027;-75
2021/12/23 09:05:36;;;;;;;15.40;7.57;;;;;;;-9.03;100.00;100916.52;1720329;81;21541;-75
2021/12/23 09:08:05;;;;;;;11.40;5.40;;;;;;;-9.11;100.00;100915.80;1647404;86;21503;-76
2021/12/23 09:10:33;;;;;;;10.83;6.30;;;;;;;-9.19;100.00;100913.29;1631298;86;21480;-77
2021/12/23 09:13:01;;;;;;;11.67;6.77;;;;;;;-9.21;100.00;100921.63;1621245;87;21019;-72
2021/12/23 09:15:28;;;;;;;10.20;5.53;;;;;;;-9.25;100.00;100918.19;1619812;87;21071;-75
2021/12/23 09:17:56;;;;;;;19.47;8.47;;;;;;;-9.24;100.00;100917.31;1596614;89;21025;-74
2021/12/23 09:20:23;;;;;;;21.67;10.67;;;;;;;-9.23;100.00;100916.86;1584629;90;20994;-74
2021/12/23 09:22:50;;;;;;;35.03;16.20;;;;;;;-9.19;100.00;100923.77;1584585;91;21033;-76
2021/12/23 09:25:24;;;;;;;44.63;24.67;;;;;;;-9.12;100.00;100907.52;1586560;89;21535;-75
2021/12/23 09:27:59;;;;;;;32.10;18.52;;;;;;;-9.07;100.00;100913.55;1638379;87;21004;-77
2021/12/23 09:33:06;;;;;;;32.47;17.13;;;;;;;-9.12;100.00;100904.89;1609469;87;21062;-75
2021/12/23 09:35:33;;;;;;;24.77;14.97;;;;;;;-9.10;100.00;100910.97;1594474;88;21043;-75
2021/12/23 09:38:00;;;;;;;82.87;45.90;;;;;;;-9.25;100.00;100907.70;1622349;87;21180;-76
2021/12/23 09:40:29;;;;;;;48.67;25.07;;;;;;;-9.32;100.00;100910.01;1601699;89;21014;-70
2021/12/23 09:43:01;;;;;;;39.40;22.23;;;;;;;-9.38;100.00;100907.05;1630740;87;21437;-75
2021/12/23 09:45:28;;;;;;;32.30;18.70;;;;;;;-9.46;100.00;100906.28;1637212;87;21015;-74
2021/12/23 09:47:56;;;;;;;20.47;10.33;;;;;;;-9.43;100.00;100906.70;1636198;86;20982;-74
2021/12/23 09:50:27;;;;;;;124.33;72.10;;;;;;;-9.32;100.00;100903.45;1605708;88;21048;-74
2021/12/23 09:52:54;;;;;;;82.97;46.57;;;;;;;-9.33;100.00;100901.72;1637202;87;20971;-75
2021/12/23 09:55:25;;;;;;;61.07;31.93;;;;;;;-9.31;100.00;100902.58;1631669;87;21015;-75
2021/12/23 09:57:54;;;;;;;226.03;104.80;;;;;;;-9.26;100.00;100898.56;1574278;88;21711;-73
2021/12/23 10:00:23;;;;;;;151.53;76.50;;;;;;;-9.16;100.00;100903.62;1568351;89;21060;-74
2021/12/23 10:02:50;;;;;;;62.73;34.27;;;;;;;-9.03;100.00;100895.56;1589219;88;21011;-73
2021/12/23 10:05:21;;;;;;;21.37;9.90;;;;;;;-9.03;100.00;100904.73;1664817;84;21047;-75
2021/12/23 10:07:49;;;;;;;21.43;8.80;;;;;;;-9.08;100.00;100892.14;1683597;85;21069;-73
2021/12/23 10:10:25;;;;;;;46.00;18.40;;;;;;;-9.12;100.00;100897.89;1684632;84;21031;-73
2021/12/23 10:33:10;;;;;;;22.33;11.27;;;;;;;-8.33;100.00;100881.56;1596110;87;20972;-79
2021/12/23 10:38:23;;;;;;;20.23;11.17;;;;;;;-8.30;100.00;100878.88;1589451;87;20962;-78
2021/12/23 10:40:54;;;;;;;37.20;24.57;;;;;;;-8.29;100.00;100875.34;1593676;87;21031;-77
2021/12/23 10:43:31;;;;;;;25.73;13.97;;;;;;;-8.28;100.00;100880.17;1596855;89;21055;-78
2021/12/23 10:46:11;;;;;;;50.83;45.50;;;;;;;-8.22;100.00;100882.20;1589989;89;21018;-79
2021/12/23 10:49:12;;;;;;;27.87;15.53;;;;;;;-8.19;100.00;100882.60;1599867;89;21047;-79
2021/12/23 10:51:22;;;;;;;14.67;6.90;;;;;;;-8.21;100.00;100880.00;1606134;89;21023;-74
2021/12/23 10:54:14;;;;;;;10.30;5.47;;;;;;;-8.17;100.00;100868.14;1616259;87;21037;-74
2021/12/23 10:59:18;;;;;;;46.37;18.13;;;;;;;-7.95;100.00;100873.35;1661681;85;20997;-78
2021/12/23 11:02:20;;;;;;;24.83;10.13;;;;;;;-7.76;100.00;100868.53;1673472;85;20977;-77
2021/12/23 11:05:05;;;;;;;13.80;6.23;;;;;;;-7.72;100.00;100872.84;1664224;85;21094;-74
2021/12/23 11:07:41;;;;;;;20.43;9.00;;;;;;;-7.78;100.00;100871.65;1644179;85;21059;-77
2021/12/23 11:10:20;;;;;;;21.07;10.20;;;;;;;-7.71;100.00;100870.61;1608970;87;21050;-82
2021/12/23 11:30:39;;;;;;;33.93;16.77;;;;;;;-7.89;100.00;100877.14;1635953;86;21030;-77
2021/12/23 11:38:58;;;;;;;10.77;5.10;;;;;;;-7.73;100.00;100869.79;1629111;87;21090;-77
2021/12/23 11:46:08;;;;;;;125.27;66.43;;;;;;;-8.03;100.00;100874.81;1539889;92;21036;-77
2021/12/23 11:48:41;;;;;;;62.73;32.97;;;;;;;-7.77;100.00;100868.56;1535465;93;21043;-78
2021/12/23 11:51:07;;;;;;;49.17;26.67;;;;;;;-7.55;100.00;100870.27;1540172;93;21014;-79
2021/12/23 11:53:35;;;;;;;47.37;25.87;;;;;;;-7.07;100.00;100870.82;1538182;93;21582;-79
2021/12/23 11:56:05;;;;;;;33.73;17.67;;;;;;;-6.62;100.00;100870.99;1540069;93;21498;-77
2021/12/23 11:58:32;;;;;;;20.37;11.03;;;;;;;-6.08;100.00;100870.78;1506775;95;21170;-76
2021/12/23 12:01:07;;;;;;;11.83;5.90;;;;;;;-5.64;100.00;100867.69;1513079;95;21088;-75
2021/12/23 12:03:53;;;;;;;37.27;20.93;;;;;;;-5.47;100.00;100868.46;1515915;95;21126;-76
2021/12/23 12:06:50;;;;;;;35.68;20.60;;;;;;;-5.67;100.00;100875.69;1491283;96;21119;-77
2021/12/23 12:09:28;;;;;;;23.80;12.27;;;;;;;-6.02;100.00;100877.20;1488605;96;21114;-76
2021/12/23 12:12:10;;;;;;;15.40;7.10;;;;;;;-6.39;100.00;100882.62;1453259;98;21075;-77
2021/12/23 12:14:41;;;;;;;14.53;6.37;;;;;;;-6.65;100.00;100888.17;1532384;94;21099;-77
2021/12/23 12:17:33;;;;;;;18.83;9.63;;;;;;;-7.07;100.00;100888.37;1532039;94;21031;-78